Time;durP1;ratioP1;P1;durP2;ratioP2;P2;SDS_P1;SDS_P2;PMS_P1;PMS_P2;Temp;Humidity;BMP_temperature;BMP_pressure;BME280_temperature;BME280_humidity;BME280_pressure;Samples;Min_cycle;Max_cycle;Signal;HPM_P1;HPM_P2
2023/05/23 00:01:53;;;;;;;35.63;26.90;;;;;;;17.72;100.00;97890.03;5096442;28;20204;-77
2023/05/23 00:04:20;;;;;;;30.30;25.73;;;;;;;17.69;100.00;97884.38;5096242;28;20220;-77
2023/05/23 00:06:49;;;;;;;36.37;28.90;;;;;;;17.79;100.00;97887.06;5096078;28;20706;-77
2023/05/23 00:09:15;;;;;;;38.23;29.53;;;;;;;17.71;100.00;97888.41;5096056;28;20294;-77
2023/05/23 00:11:44;;;;;;;39.93;32.37;;;;;;;17.61;100.00;97893.78;5096477;28;20207;-77
2023/05/23 00:14:14;;;;;;;41.53;30.97;;;;;;;17.67;100.00;97895.41;5096115;28;20204;-77
2023/05/23 00:16:48;;;;;;;40.73;31.13;;;;;;;17.70;100.00;97894.06;5095508;28;20232;-77
2023/05/23 00:19:15;;;;;;;40.30;31.30;;;;;;;17.66;100.00;97891.09;5096559;28;20598;-77
2023/05/23 00:21:48;;;;;;;41.30;32.03;;;;;;;17.67;100.00;97894.56;5095985;28;20208;-77
2023/05/23 00:24:17;;;;;;;42.90;31.67;;;;;;;17.61;100.00;97898.34;5095623;28;20674;-77
2023/05/23 00:26:44;;;;;;;45.70;33.30;;;;;;;17.55;100.00;97889.47;5096048;28;20232;-77
2023/05/23 00:29:14;;;;;;;42.13;33.03;;;;;;;17.57;100.00;97892.69;5095948;28;20208;-77
2023/05/23 00:31:41;;;;;;;43.93;33.47;;;;;;;17.57;100.00;97889.19;5095379;28;20678;-77
2023/05/23 00:34:07;;;;;;;42.47;33.90;;;;;;;17.52;100.00;97898.06;5095972;28;20204;-77
2023/05/23 00:36:36;;;;;;;44.93;34.23;;;;;;;17.54;100.00;97903.16;5095632;28;20726;-77
2023/05/23 00:39:03;;;;;;;44.63;34.23;;;;;;;17.60;100.00;97905.59;5096476;28;20265;-78
2023/05/23 00:41:30;;;;;;;46.37;34.87;;;;;;;17.53;100.00;97899.69;5094996;28;20210;-77
2023/05/23 00:43:59;;;;;;;47.57;36.47;;;;;;;17.54;100.00;97903.16;5095701;28;20228;-78
2023/05/23 00:46:27;;;;;;;42.70;34.67;;;;;;;17.52;100.00;97902.63;5095544;28;20273;-77
2023/05/23 00:48:54;;;;;;;45.17;34.40;;;;;;;17.60;100.00;97900.22;5095216;28;20757;-79
2023/05/23 00:51:21;;;;;;;47.63;35.23;;;;;;;17.57;100.00;97906.16;5095746;28;20199;-77
2023/05/23 00:53:49;;;;;;;44.67;34.17;;;;;;;17.59;100.00;97905.84;5095164;28;20671;-77
2023/05/23 00:56:15;;;;;;;43.57;34.43;;;;;;;17.62;100.00;97910.72;5094594;28;20667;-77
2023/05/23 00:58:41;;;;;;;47.37;35.17;;;;;;;17.59;100.00;97919.28;5095142;28;20204;-77
2023/05/23 01:01:08;;;;;;;49.63;36.67;;;;;;;17.62;100.00;97924.97;5095033;28;20215;-77
2023/05/23 01:03:35;;;;;;;50.43;37.63;;;;;;;17.57;100.00;97921.47;5094838;28;20231;-77
2023/05/23 01:06:01;;;;;;;55.83;39.50;;;;;;;17.53;100.00;97921.19;5095057;28;20244;-78
2023/05/23 01:08:29;;;;;;;49.60;36.70;;;;;;;17.57;100.00;97919.59;5094993;28;20199;-77
2023/05/23 01:11:01;;;;;;;54.27;38.83;;;;;;;17.51;100.00;97923.31;5095077;28;20208;-77
2023/05/23 01:13:41;;;;;;;53.43;37.83;;;;;;;17.55;100.00;97910.97;5094947;28;20238;-77
2023/05/23 01:16:17;;;;;;;50.00;39.23;;;;;;;17.54;100.00;97920.09;5094824;28;20235;-77
2023/05/23 01:18:56;;;;;;;53.80;39.13;;;;;;;17.52;100.00;97913.38;5095031;28;20222;-78
2023/05/23 01:21:25;;;;;;;53.37;40.20;;;;;;;17.45;100.00;97919.00;5095079;28;20188;-77
2023/05/23 01:24:10;;;;;;;52.23;38.20;;;;;;;17.50;100.00;97921.72;5096718;28;20226;-77
2023/05/23 01:26:57;;;;;;;51.17;39.97;;;;;;;17.67;100.00;97922.28;5094419;28;20220;-77
2023/05/23 01:29:32;;;;;;;51.57;39.30;;;;;;;17.50;100.00;97924.41;5093555;28;20638;-77
2023/05/23 01:31:59;;;;;;;57.73;41.67;;;;;;;17.39;100.00;97917.41;5095105;28;20184;-77
2023/05/23 01:34:26;;;;;;;59.63;42.30;;;;;;;17.39;100.00;97917.41;5094383;28;20200;-77
2023/05/23 01:36:55;;;;;;;55.20;41.03;;;;;;;17.38;100.00;97918.41;5094353;28;20598;-77
2023/05/23 01:39:23;;;;;;;53.87;38.97;;;;;;;17.33;100.00;97920.31;5094425;28;20200;-77
2023/05/23 01:41:53;;;;;;;56.60;40.90;;;;;;;17.34;100.00;97920.03;5094179;28;20207;-77
2023/05/23 01:44:21;;;;;;;54.63;40.40;;;;;;;17.37;100.00;97916.03;5094140;28;20254;-77
2023/05/23 01:46:48;;;;;;;56.67;42.67;;;;;;;17.35;100.00;97916.28;5094318;28;20234;-78
2023/05/23 01:49:16;;;;;;;65.97;45.40;;;;;;;17.27;100.00;97921.34;5094266;28;20289;-78
2023/05/23 01:51:43;;;;;;;56.77;43.90;;;;;;;17.30;100.00;97921.66;5093997;28;20211;-77
2023/05/23 01:54:10;;;;;;;59.80;43.67;;;;;;;17.27;100.00;97924.84;5093574;28;20208;-77
2023/05/23 01:56:36;;;;;;;61.30;43.87;;;;;;;17.27;100.00;97921.34;5093679;28;20228;-77
2023/05/23 01:59:03;;;;;;;57.00;44.43;;;;;;;17.25;100.00;97923.50;5093791;28;20691;-77
2023/05/23 02:01:30;;;;;;;59.73;45.43;;;;;;;17.22;100.00;97927.53;5094136;28;20308;-77
2023/05/23 02:03:56;;;;;;;62.60;46.90;;;;;;;17.23;100.00;97928.34;5094061;28;20333;-78
2023/05/23 02:06:23;;;;;;;65.27;48.43;;;;;;;17.20;100.00;97926.97;5094169;28;20227;-77
2023/05/23 02:08:49;;;;;;;68.70;49.53;;;;;;;17.15;100.00;97926.16;5093876;28;20200;-77
2023/05/23 02:11:16;;;;;;;62.97;46.73;;;;;;;17.19;100.00;97925.34;5093917;28;20215;-77
2023/05/23 02:13:42;;;;;;;66.20;46.67;;;;;;;17.11;100.00;97927.75;5093359;28;20203;-77
2023/05/23 02:16:09;;;;;;;66.70;48.67;;;;;;;17.10;100.00;97923.47;5093178;28;20722;-77
2023/05/23 02:18:36;;;;;;;69.73;49.50;;;;;;;17.11;100.00;97912.47;5093766;28;20689;-77
2023/05/23 02:21:04;;;;;;;62.63;46.47;;;;;;;17.15;100.00;97926.94;5093777;28;20243;-77
2023/05/23 02:23:31;;;;;;;67.87;48.67;;;;;;;17.14;100.00;97927.25;5093703;28;20211;-77
2023/05/23 02:25:57;;;;;;;61.10;44.87;;;;;;;17.13;100.00;97936.34;5093954;28;20224;-77
2023/05/23 02:28:23;;;;;;;66.97;48.63;;;;;;;17.11;100.00;97928.56;5094378;28;20204;-77
2023/05/23 02:30:50;;;;;;;62.83;48.53;;;;;;;17.14;100.00;97936.09;5093328;28;20670;-77
2023/05/23 02:33:16;;;;;;;69.83;50.07;;;;;;;17.10;100.00;97932.31;5093709;28;20207;-77
2023/05/23 02:35:43;;;;;;;62.50;48.43;;;;;;;17.09;100.00;97932.56;5093463;28;20220;-77
2023/05/23 02:38:09;;;;;;;61.77;48.80;;;;;;;17.10;100.00;97929.63;5093152;28;20200;-77
2023/05/23 02:40:35;;;;;;;65.60;49.87;;;;;;;17.12;100.00;97935.56;5093691;28;20204;-78
2023/05/23 02:43:02;;;;;;;63.93;49.87;;;;;;;17.13;100.00;97942.53;5093688;28;20207;-77
2023/05/23 02:45:28;;;;;;;69.83;52.13;;;;;;;17.13;100.00;97937.16;5093070;28;20752;-77
2023/05/23 02:47:55;;;;;;;65.67;50.47;;;;;;;17.17;100.00;97945.50;5093205;28;20670;-77
2023/05/23 02:50:21;;;;;;;64.43;51.53;;;;;;;17.18;100.00;97947.94;5093455;28;20226;-78
2023/05/23 02:52:47;;;;;;;62.93;50.70;;;;;;;17.20;100.00;97942.28;5093482;28;20204;-77
2023/05/23 02:55:14;;;;;;;67.53;51.93;;;;;;;17.21;100.00;97943.91;5093356;28;20330;-77
2023/05/23 02:57:40;;;;;;;62.03;50.17;;;;;;;17.18;100.00;97942.56;5093534;28;20204;-77
2023/05/23 03:00:08;;;;;;;69.27;52.63;;;;;;;17.13;100.00;97949.78;5093580;28;20208;-77
2023/05/23 03:02:35;;;;;;;64.23;50.90;;;;;;;17.10;100.00;97948.44;5093525;28;20617;-77
2023/05/23 03:05:02;;;;;;;70.20;52.03;;;;;;;17.10;100.00;97944.94;5093579;28;20227;-77
2023/05/23 03:07:29;;;;;;;65.67;51.10;;;;;;;17.15;100.00;97947.66;5097454;28;20215;-77
2023/05/23 03:09:55;;;;;;;61.47;49.13;;;;;;;17.14;100.00;97952.22;5096935;28;20207;-77
2023/05/23 03:12:22;;;;;;;67.73;50.17;;;;;;;17.23;100.00;97956.00;5096581;28;20670;-77
2023/05/23 03:14:48;;;;;;;58.40;47.10;;;;;;;17.16;100.00;97958.13;5096583;28;20562;-77
2023/05/23 03:17:15;;;;;;;60.77;49.17;;;;;;;17.20;100.00;97961.88;5096762;28;20239;-78
2023/05/23 03:19:41;;;;;;;62.67;49.27;;;;;;;17.26;100.00;97963.53;5096747;28;20551;-77
2023/05/23 03:22:07;;;;;;;61.00;48.17;;;;;;;17.15;100.00;97961.88;5097699;28;20200;-78
2023/05/23 03:24:34;;;;;;;57.47;47.20;;;;;;;17.10;100.00;97961.84;5097171;28;20234;-78
2023/05/23 03:27:01;;;;;;;56.70;47.67;;;;;;;17.13;100.00;97963.22;5096823;28;20314;-77
2023/05/23 03:29:28;;;;;;;59.17;47.83;;;;;;;17.16;100.00;97965.38;5097759;28;20249;-78
2023/05/23 03:31:54;;;;;;;56.77;46.50;;;;;;;17.17;100.00;97967.81;5097466;28;20211;-78
2023/05/23 03:34:22;;;;;;;55.73;46.17;;;;;;;17.22;100.00;97970.50;5096742;28;20560;-77
2023/05/23 03:36:49;;;;;;;54.53;45.07;;;;;;;17.17;100.00;97965.13;5096907;28;20230;-77
2023/05/23 03:39:16;;;;;;;63.37;47.37;;;;;;;17.10;100.00;97963.75;5097246;28;20203;-77
2023/05/23 03:41:42;;;;;;;55.53;46.47;;;;;;;17.13;100.00;97968.56;5096529;28;20200;-77
2023/05/23 03:44:08;;;;;;;56.97;45.77;;;;;;;17.14;100.00;97968.31;5095909;28;20222;-77
2023/05/23 03:46:35;;;;;;;54.27;46.13;;;;;;;17.22;100.00;97975.06;5096458;28;20228;-77
2023/05/23 03:49:01;;;;;;;52.17;44.07;;;;;;;17.14;100.00;97967.53;5096224;28;20200;-77
2023/05/23 03:51:28;;;;;;;55.60;44.43;;;;;;;17.18;100.00;97963.22;5096356;28;20286;-77
2023/05/23 03:53:55;;;;;;;55.20;45.57;;;;;;;17.13;100.00;97964.03;5096222;28;20203;-77
2023/05/23 03:56:21;;;;;;;52.43;45.63;;;;;;;17.08;100.00;97958.63;5096513;28;20272;-77
2023/05/23 03:58:48;;;;;;;54.40;44.67;;;;;;;17.13;100.00;97952.47;5095606;28;20566;-77
2023/05/23 04:01:14;;;;;;;49.93;44.10;;;;;;;17.08;100.00;97960.50;5096115;28;20207;-77
2023/05/23 04:03:41;;;;;;;49.63;44.00;;;;;;;17.10;100.00;97961.84;5095644;28;20208;-77
2023/05/23 04:06:07;;;;;;;54.10;44.17;;;;;;;17.10;100.00;97961.84;5095955;28;20281;-77
2023/05/23 04:08:34;;;;;;;53.10;43.73;;;;;;;17.07;100.00;97965.09;5096359;28;20203;-77
2023/05/23 04:11:01;;;;;;;52.23;44.73;;;;;;;17.15;100.00;97959.19;5096241;28;20662;-78
2023/05/23 04:13:29;;;;;;;50.37;43.73;;;;;;;17.12;100.00;97970.47;5095880;28;20253;-77
2023/05/23 04:15:56;;;;;;;51.90;42.07;;;;;;;17.04;100.00;97968.28;5095575;28;20239;-77
2023/05/23 04:18:23;;;;;;;54.10;45.00;;;;;;;16.98;100.00;97973.88;5096365;28;20207;-78
2023/05/23 04:20:49;;;;;;;52.97;44.43;;;;;;;17.06;100.00;97968.03;5095751;28;20207;-78
2023/05/23 04:23:15;;;;;;;53.60;42.77;;;;;;;17.07;100.00;97967.78;5096039;28;20211;-77
2023/05/23 04:25:42;;;;;;;51.73;43.47;;;;;;;17.05;100.00;97974.47;5095253;28;20698;-77
2023/05/23 04:28:09;;;;;;;51.03;42.63;;;;;;;16.99;100.00;97980.88;5095851;28;20226;-77
2023/05/23 04:30:36;;;;;;;49.10;43.63;;;;;;;17.03;100.00;97974.72;5095916;28;20679;-77
2023/05/23 04:33:02;;;;;;;47.07;41.83;;;;;;;17.13;100.00;97973.94;5098524;28;20200;-77
2023/05/23 04:35:28;;;;;;;50.23;41.17;;;;;;;17.10;100.00;97980.66;5096697;28;20227;-77
2023/05/23 04:37:56;;;;;;;47.70;40.70;;;;;;;17.04;100.00;97973.66;5095260;28;20204;-78
2023/05/23 04:40:23;;;;;;;51.37;42.90;;;;;;;16.97;100.00;97978.44;5095765;28;20203;-78
2023/05/23 04:42:50;;;;;;;45.27;40.37;;;;;;;17.02;100.00;97989.25;5095267;28;20215;-78
2023/05/23 04:45:19;;;;;;;47.50;40.80;;;;;;;17.08;100.00;97990.88;5094909;28;20306;-77
2023/05/23 04:47:46;;;;;;;47.63;40.37;;;;;;;17.01;100.00;97994.88;5095221;28;20212;-77
2023/05/23 04:50:13;;;;;;;48.77;41.57;;;;;;;17.06;100.00;97995.69;5095836;28;20204;-78
2023/05/23 04:52:40;;;;;;;46.87;41.50;;;;;;;17.01;100.00;98001.03;5095149;28;20261;-77
2023/05/23 04:55:07;;;;;;;47.60;40.93;;;;;;;17.05;100.00;97998.66;5095420;28;20204;-77
2023/05/23 04:57:34;;;;;;;48.70;39.90;;;;;;;17.04;100.00;98005.88;5095003;28;20204;-78
2023/05/23 05:00:00;;;;;;;46.47;41.37;;;;;;;17.05;100.00;98004.03;5095654;28;20199;-78
2023/05/23 05:02:27;;;;;;;46.87;39.70;;;;;;;17.09;100.00;98000.53;5094336;28;20734;-77
2023/05/23 05:04:54;;;;;;;45.53;40.57;;;;;;;17.06;100.00;98008.31;5095141;28;20226;-77
2023/05/23 05:07:20;;;;;;;46.77;39.87;;;;;;;17.14;100.00;98007.81;5094917;28;20223;-78
2023/05/23 05:09:46;;;;;;;45.03;40.13;;;;;;;17.12;100.00;98005.41;5095327;28;20206;-78
2023/05/23 05:12:13;;;;;;;43.50;38.53;;;;;;;17.14;100.00;98008.63;5094664;28;20218;-77
2023/05/23 05:14:39;;;;;;;43.57;39.03;;;;;;;17.14;100.00;98014.00;5095324;28;20208;-78
2023/05/23 05:17:05;;;;;;;44.57;39.47;;;;;;;17.10;100.00;98012.91;5094961;28;20238;-78
2023/05/23 05:19:32;;;;;;;44.87;38.63;;;;;;;17.14;100.00;98011.31;5096629;28;20225;-78
2023/05/23 05:21:59;;;;;;;44.73;38.73;;;;;;;17.11;100.00;98011.03;5094496;28;20218;-78
2023/05/23 05:24:26;;;;;;;45.47;40.53;;;;;;;17.18;100.00;98016.97;5094763;28;20218;-78
2023/05/23 05:26:53;;;;;;;44.07;39.40;;;;;;;17.15;100.00;98020.97;5094712;28;20310;-78
2023/05/23 05:29:19;;;;;;;44.00;39.37;;;;;;;17.15;100.00;98026.34;5094141;28;20203;-78
2023/05/23 05:31:46;;;;;;;44.33;38.57;;;;;;;17.21;100.00;98025.31;5094534;28;20211;-78
2023/05/23 05:34:13;;;;;;;44.17;39.17;;;;;;;17.26;100.00;98022.66;5094512;28;20211;-78
2023/05/23 05:36:44;;;;;;;44.40;38.87;;;;;;;17.17;100.00;98028.78;5095497;28;20220;-77
2023/05/23 05:39:12;;;;;;;42.60;38.30;;;;;;;17.15;100.00;98025.56;5094997;28;20243;-78
2023/05/23 05:41:38;;;;;;;44.20;38.33;;;;;;;17.17;100.00;98024.22;5094055;28;20678;-77
2023/05/23 05:44:04;;;;;;;46.00;41.03;;;;;;;17.28;100.00;98023.19;5093914;28;20204;-77
2023/05/23 05:46:31;;;;;;;44.57;39.73;;;;;;;17.23;100.00;98033.91;5093949;28;20598;-77
2023/05/23 05:48:57;;;;;;;44.03;38.77;;;;;;;17.21;100.00;98025.31;5094351;28;20566;-78
2023/05/23 05:51:23;;;;;;;44.23;39.17;;;;;;;17.30;100.00;98022.94;5093875;28;20569;-78
2023/05/23 05:53:50;;;;;;;41.30;37.13;;;;;;;17.45;100.00;98023.84;5093761;28;20203;-78
2023/05/23 05:56:16;;;;;;;43.10;38.57;;;;;;;17.41;100.00;98021.94;5094096;28;20226;-78
2023/05/23 05:58:42;;;;;;;42.50;38.10;;;;;;;17.28;100.00;98035.84;5094115;28;20211;-77
2023/05/23 06:01:09;;;;;;;42.60;38.20;;;;;;;17.27;100.00;98035.00;5094057;28;20664;-77
2023/05/23 06:03:35;;;;;;;42.60;38.17;;;;;;;17.26;100.00;98036.09;5093273;28;20222;-78
2023/05/23 06:06:02;;;;;;;41.63;37.37;;;;;;;17.33;100.00;98035.84;5092649;28;20292;-78
2023/05/23 06:08:28;;;;;;;41.73;37.27;;;;;;;17.35;100.00;98036.38;5092719;28;20210;-78
2023/05/23 06:10:55;;;;;;;42.33;38.03;;;;;;;17.37;100.00;98045.00;5092951;28;20208;-77
2023/05/23 06:13:21;;;;;;;40.80;36.67;;;;;;;17.35;100.00;98037.22;5092064;28;20547;-77
2023/05/23 06:15:48;;;;;;;43.53;38.93;;;;;;;17.29;100.00;98038.22;5092109;28;20228;-78
2023/05/23 06:18:14;;;;;;;44.63;39.97;;;;;;;17.29;100.00;98040.91;5092651;28;20613;-77
2023/05/23 06:20:41;;;;;;;42.30;37.73;;;;;;;17.42;100.00;98037.00;5094141;28;20203;-78
2023/05/23 06:23:07;;;;;;;44.93;40.20;;;;;;;17.42;100.00;98045.84;5094490;28;20294;-78
2023/05/23 06:25:34;;;;;;;44.47;39.97;;;;;;;17.26;100.00;98046.03;5093929;28;20228;-78
2023/05/23 06:28:00;;;;;;;45.27;40.70;;;;;;;17.31;100.00;98046.03;5093372;28;20207;-77
2023/05/23 06:30:28;;;;;;;44.43;39.80;;;;;;;17.30;100.00;98041.75;5094279;28;20212;-75
2023/05/23 06:32:54;;;;;;;45.20;40.50;;;;;;;17.31;100.00;98046.03;5093176;28;20548;-74
2023/05/23 06:35:20;;;;;;;46.27;40.80;;;;;;;17.33;100.00;98051.97;5093014;28;20219;-74
2023/05/23 06:37:47;;;;;;;44.57;39.73;;;;;;;17.35;100.00;98053.34;5092752;28;20207;-74
2023/05/23 06:40:13;;;;;;;46.73;39.87;;;;;;;17.40;100.00;98056.06;5093928;28;20607;-74
2023/05/23 06:42:40;;;;;;;44.23;39.83;;;;;;;17.41;100.00;98064.97;5097119;28;20261;-74
2023/05/23 06:45:07;;;;;;;42.43;38.07;;;;;;;17.37;100.00;98072.69;5097034;28;20231;-74
2023/05/23 06:47:34;;;;;;;41.90;37.77;;;;;;;17.34;100.00;98067.03;5097258;28;20207;-74
2023/05/23 06:50:00;;;;;;;42.83;38.53;;;;;;;17.32;100.00;98069.97;5096886;28;20200;-74
2023/05/23 06:52:26;;;;;;;42.63;38.50;;;;;;;17.15;100.00;98074.69;5096876;28;20208;-74
2023/05/23 06:54:53;;;;;;;43.53;39.07;;;;;;;17.06;100.00;98081.63;5096904;28;20282;-75
2023/05/23 06:57:19;;;;;;;41.63;37.47;;;;;;;17.12;100.00;98080.63;5096916;28;20224;-74
2023/05/23 06:59:45;;;;;;;41.60;37.20;;;;;;;17.05;100.00;98080.03;5097009;28;20326;-74
2023/05/23 07:02:12;;;;;;;43.97;39.47;;;;;;;17.04;100.00;98086.47;5096983;28;20203;-74
2023/05/23 07:04:38;;;;;;;43.77;39.57;;;;;;;16.97;100.00;98082.41;5096855;28;20287;-74
2023/05/23 07:07:05;;;;;;;44.73;40.00;;;;;;;16.93;100.00;98086.66;5096803;28;20232;-74
2023/05/23 07:09:31;;;;;;;41.50;37.47;;;;;;;16.92;100.00;98088.53;5097626;28;20203;-74
2023/05/23 07:11:57;;;;;;;39.50;35.33;;;;;;;16.93;100.00;98094.72;5096688;28;20204;-74
2023/05/23 07:14:24;;;;;;;39.47;35.53;;;;;;;16.91;100.00;98105.72;5096694;28;20204;-74
2023/05/23 07:16:51;;;;;;;39.60;33.50;;;;;;;16.87;100.00;98090.38;5096433;28;20231;-74
2023/05/23 07:19:17;;;;;;;36.67;33.07;;;;;;;16.84;100.00;98112.38;5096712;28;20200;-74
2023/05/23 07:21:43;;;;;;;36.20;32.40;;;;;;;16.93;100.00;98108.97;5096480;28;20208;-74
2023/05/23 07:24:10;;;;;;;33.70;30.30;;;;;;;16.91;100.00;98100.34;5096263;28;20211;-74
2023/05/23 07:26:36;;;;;;;30.50;27.70;;;;;;;16.83;100.00;98103.50;5096193;28;20231;-73
2023/05/23 07:29:02;;;;;;;29.67;26.77;;;;;;;16.85;100.00;98112.13;5096016;28;20690;-73
2023/05/23 07:31:29;;;;;;;28.57;25.87;;;;;;;16.87;100.00;98099.22;5096425;28;20561;-73
2023/05/23 07:33:55;;;;;;;28.10;25.40;;;;;;;16.92;100.00;98104.63;5096480;28;20211;-73
2023/05/23 07:36:22;;;;;;;28.23;25.63;;;;;;;16.87;100.00;98107.28;5096454;28;20226;-74
2023/05/23 07:38:48;;;;;;;28.20;25.40;;;;;;;16.90;100.00;98117.53;5096162;28;20215;-74
2023/05/23 07:41:15;;;;;;;30.23;27.27;;;;;;;16.82;100.00;98112.63;5096145;28;20208;-74
2023/05/23 07:43:42;;;;;;;32.57;29.57;;;;;;;16.85;100.00;98117.50;5095715;28;20694;-74
2023/05/23 07:46:08;;;;;;;31.43;28.37;;;;;;;16.85;100.00;98120.19;5095653;28;20228;-73
2023/05/23 07:48:34;;;;;;;34.07;30.73;;;;;;;16.80;100.00;98114.78;5096141;28;20675;-74
2023/05/23 07:51:01;;;;;;;34.80;31.60;;;;;;;16.84;100.00;98113.19;5095449;28;20208;-74
2023/05/23 07:53:27;;;;;;;32.97;29.87;;;;;;;17.07;100.00;98112.81;5095949;28;20207;-73
2023/05/23 07:55:54;;;;;;;32.80;29.77;;;;;;;17.22;100.00;98129.03;5096009;28;20216;-74
2023/05/23 07:58:20;;;;;;;32.07;28.93;;;;;;;17.00;100.00;98128.34;5095889;28;20214;-74
2023/05/23 08:00:47;;;;;;;30.53;27.33;;;;;;;17.05;100.00;98123.00;5095905;28;20204;-73
2023/05/23 08:03:14;;;;;;;28.73;26.03;;;;;;;16.83;100.00;98124.97;5096003;28;20593;-73
2023/05/23 08:05:40;;;;;;;26.10;23.77;;;;;;;16.80;100.00;98128.19;5095622;28;20231;-73
2023/05/23 08:08:06;;;;;;;27.03;24.37;;;;;;;16.83;100.00;98132.25;5095642;28;20212;-73
2023/05/23 08:10:33;;;;;;;25.40;22.90;;;;;;;16.79;100.00;98131.94;5095793;28;20208;-73
2023/05/23 08:13:03;;;;;;;24.77;22.43;;;;;;;16.90;100.00;98139.00;5095267;28;20567;-74
2023/05/23 08:15:29;;;;;;;24.13;21.83;;;;;;;16.81;100.00;98129.00;5095546;28;20265;-73
2023/05/23 08:17:56;;;;;;;22.37;20.23;;;;;;;16.74;100.00;98147.22;5095550;28;20188;-73
2023/05/23 08:20:29;;;;;;;24.63;21.97;;;;;;;16.72;100.00;98142.09;5095681;28;20211;-73
2023/05/23 08:22:57;;;;;;;23.63;21.43;;;;;;;16.64;100.00;98142.53;5095654;28;20211;-73
2023/05/23 08:25:23;;;;;;;24.77;22.37;;;;;;;16.67;100.00;98150.09;5095265;28;20624;-73
2023/05/23 08:27:50;;;;;;;23.10;21.03;;;;;;;16.60;100.00;98152.16;5095736;28;20228;-73
2023/05/23 08:30:16;;;;;;;23.57;21.47;;;;;;;16.61;100.00;98150.31;5095334;28;20295;-73
2023/05/23 08:32:42;;;;;;;22.50;20.30;;;;;;;16.61;100.00;98145.72;5094929;28;20207;-74
2023/05/23 08:35:09;;;;;;;22.57;20.37;;;;;;;16.55;100.00;98154.81;5094768;28;20212;-73
2023/05/23 08:37:35;;;;;;;22.90;20.77;;;;;;;16.61;100.00;98164.53;5094870;28;20203;-73
2023/05/23 08:40:02;;;;;;;21.37;19.23;;;;;;;16.67;100.00;98158.16;5095029;28;20210;-73
2023/05/23 08:42:29;;;;;;;21.30;19.07;;;;;;;16.71;100.00;98161.94;5095036;28;20204;-73
2023/05/23 08:44:55;;;;;;;20.87;18.53;;;;;;;16.88;100.00;98169.88;5094859;28;20204;-73
2023/05/23 08:47:21;;;;;;;21.23;19.07;;;;;;;16.74;100.00;98169.47;5094819;28;20251;-73
2023/05/23 08:49:49;;;;;;;19.23;17.27;;;;;;;16.96;100.00;98178.25;5094977;28;20215;-73
2023/05/23 08:52:18;;;;;;;19.90;17.97;;;;;;;16.88;100.00;98176.03;5094642;28;20215;-73
2023/05/23 08:54:45;;;;;;;19.87;17.90;;;;;;;16.83;100.00;98172.53;5093221;28;20211;-73
2023/05/23 08:57:11;;;;;;;19.87;17.73;;;;;;;16.77;100.00;98174.34;5103568;28;20247;-73
2023/05/23 08:59:38;;;;;;;19.70;17.70;;;;;;;16.67;100.00;98174.25;5104395;28;20199;-74
2023/05/23 09:02:10;;;;;;;20.17;18.13;;;;;;;16.81;100.00;98185.38;5105199;28;20199;-73
2023/05/23 09:04:36;;;;;;;20.17;17.37;;;;;;;16.88;100.00;98186.00;5086435;28;20581;-74
2023/05/23 09:07:04;;;;;;;19.00;17.20;;;;;;;16.95;100.00;98179.34;5103016;28;20246;-73
2023/05/23 09:09:30;;;;;;;18.83;16.93;;;;;;;16.84;100.00;98187.56;5100050;28;20226;-74
2023/05/23 09:11:59;;;;;;;21.43;19.33;;;;;;;16.86;100.00;98188.94;5104047;28;20207;-74
2023/05/23 09:14:25;;;;;;;19.77;17.93;;;;;;;16.84;100.00;98195.63;5103213;28;20245;-73
2023/05/23 09:16:52;;;;;;;19.53;17.63;;;;;;;16.91;100.00;98185.47;5104370;28;20302;-73
2023/05/23 09:19:18;;;;;;;21.00;18.77;;;;;;;16.84;100.00;98192.94;5104495;28;20211;-74
2023/05/23 09:21:45;;;;;;;18.77;16.87;;;;;;;16.76;100.00;98193.38;5111777;28;20218;-74
2023/05/23 09:24:12;;;;;;;19.37;17.43;;;;;;;16.71;100.00;98204.09;5114007;28;20234;-74
2023/05/23 09:26:38;;;;;;;18.97;17.27;;;;;;;16.79;100.00;98196.38;5114146;28;20234;-73
2023/05/23 09:29:06;;;;;;;17.90;16.10;;;;;;;16.89;100.00;98201.03;5115052;28;20214;-73
2023/05/23 09:31:33;;;;;;;18.13;16.43;;;;;;;16.98;100.00;98200.31;5114646;28;20199;-74
2023/05/23 09:33:59;;;;;;;18.03;16.20;;;;;;;16.81;100.00;98190.75;5114631;28;20211;-74
2023/05/23 09:36:29;;;;;;;16.80;15.10;;;;;;;16.87;100.00;98193.22;5114351;28;20219;-73
2023/05/23 09:38:55;;;;;;;17.87;16.07;;;;;;;16.82;100.00;98208.50;5114424;28;20351;-74
2023/05/23 09:41:23;;;;;;;16.10;14.60;;;;;;;16.87;100.00;98195.91;5114461;28;20226;-73
2023/05/23 09:43:55;;;;;;;16.70;15.07;;;;;;;16.81;100.00;98204.16;5114159;28;20252;-74
2023/05/23 09:46:22;;;;;;;15.37;13.63;;;;;;;16.98;100.00;98210.25;5113806;28;20227;-74
2023/05/23 09:48:51;;;;;;;16.87;15.10;;;;;;;17.16;100.00;98208.00;5114095;28;20203;-74
2023/05/23 09:51:20;;;;;;;17.47;15.27;;;;;;;17.21;100.00;98217.94;5113584;28;20574;-74
2023/05/23 09:53:47;;;;;;;15.50;14.03;;;;;;;17.26;100.00;98215.31;5114050;28;20199;-74
2023/05/23 09:56:17;;;;;;;15.80;13.70;;;;;;;17.13;100.00;98202.28;5114115;28;20623;-73
2023/05/23 09:58:50;;;;;;;15.67;14.27;;;;;;;17.15;100.00;98206.34;5114027;28;20203;-74
2023/05/23 10:01:17;;;;;;;14.87;13.37;;;;;;;17.13;100.00;98205.81;5113881;28;20203;-74
2023/05/23 10:03:53;;;;;;;20.00;14.50;;;;;;;17.21;100.00;98208.03;5114427;28;20206;-74
2023/05/23 10:06:27;;;;;;;16.67;14.07;;;;;;;17.23;100.00;98207.78;5113483;28;20259;-73
2023/05/23 10:09:01;;;;;;;14.73;13.37;;;;;;;17.43;100.00;98213.31;5113892;28;20184;-74
2023/05/23 10:11:33;;;;;;;13.60;12.30;;;;;;;17.75;98.50;98208.66;5113924;28;20191;-73
2023/05/23 10:14:07;;;;;;;14.33;13.00;;;;;;;17.89;96.73;98212.50;5113978;28;20203;-73
2023/05/23 10:17:08;;;;;;;14.20;12.90;;;;;;;17.95;97.03;98212.28;5113508;28;20238;-73
2023/05/23 10:19:50;;;;;;;13.23;11.90;;;;;;;18.21;98.20;98210.50;5114041;28;20277;-74
2023/05/23 10:22:17;;;;;;;13.30;12.00;;;;;;;18.24;99.67;98202.69;5113997;28;20191;-74
2023/05/23 10:24:45;;;;;;;14.00;12.60;;;;;;;18.44;93.47;98208.19;5113806;28;20294;-74
2023/05/23 10:27:12;;;;;;;13.47;12.27;;;;;;;18.43;92.87;98201.19;5113573;28;20230;-74
2023/05/23 10:29:39;;;;;;;12.73;11.53;;;;;;;18.61;93.05;98214.16;5113892;28;20218;-74
2023/05/23 10:32:07;;;;;;;12.03;10.93;;;;;;;18.50;90.96;98217.09;5113186;28;20207;-74
2023/05/23 10:34:55;;;;;;;12.20;11.10;;;;;;;18.27;95.70;98209.47;5113558;28;20199;-73
2023/05/23 10:37:33;;;;;;;10.97;9.97;;;;;;;18.38;92.80;98208.44;5113441;28;20593;-73
2023/05/23 10:40:27;;;;;;;11.50;10.40;;;;;;;18.30;91.41;98207.03;5095578;28;20195;-73
2023/05/23 10:43:13;;;;;;;11.13;10.03;;;;;;;18.33;91.70;98211.13;5114535;28;20530;-73
2023/05/23 10:45:43;;;;;;;11.70;9.90;;;;;;;18.53;91.80;98203.09;5113168;28;20218;-74
2023/05/23 10:48:33;;;;;;;12.10;9.53;;;;;;;18.31;92.12;98205.97;5113702;28;20211;-74
2023/05/23 10:51:09;;;;;;;10.53;9.50;;;;;;;18.49;91.70;98205.50;5113447;28;20198;-73
2023/05/23 10:53:41;;;;;;;10.20;9.20;;;;;;;18.73;95.61;98200.44;5113495;28;20187;-74
2023/05/23 10:56:08;;;;;;;10.37;9.47;;;;;;;18.93;90.14;98206.66;5113277;28;20223;-74
2023/05/23 10:58:36;;;;;;;10.03;9.00;;;;;;;18.78;90.98;98200.47;5113088;28;20569;-73
2023/05/23 11:01:07;;;;;;;9.73;8.93;;;;;;;18.87;89.23;98199.63;5113701;28;20299;-73
2023/05/23 11:03:37;;;;;;;9.60;8.80;;;;;;;18.82;91.95;98206.94;5095027;28;20207;-73
2023/05/23 11:06:05;;;;;;;9.53;8.63;;;;;;;18.62;86.17;98212.25;5113107;28;20235;-74
2023/05/23 11:08:41;;;;;;;9.73;8.73;;;;;;;18.86;85.10;98211.50;5113380;28;20214;-74
2023/05/23 11:11:08;;;;;;;10.53;8.17;;;;;;;18.85;90.12;98212.59;5112907;28;20662;-74
2023/05/23 11:13:54;;;;;;;10.30;8.30;;;;;;;18.99;85.55;98210.16;5112718;28;20210;-73